createdAt,value
2019-01-09T00:00:06.926Z,810.41
2019-01-09T00:01:06.947Z,810.36
2019-01-09T00:02:06.931Z,810.41
2019-01-09T00:03:06.936Z,810.40
2019-01-09T00:04:06.938Z,810.39
2019-01-09T00:05:06.942Z,810.39
2019-01-09T00:06:06.946Z,810.41
2019-01-09T00:07:06.952Z,810.43
2019-01-09T00:08:06.949Z,810.41
2019-01-09T00:09:06.953Z,810.45
2019-01-09T00:10:06.975Z,810.44
2019-01-09T00:11:06.958Z,810.41
2019-01-09T00:12:06.962Z,810.39
2019-01-09T00:13:06.966Z,810.43
2019-01-09T00:14:06.967Z,810.43
2019-01-09T00:15:06.971Z,810.43
2019-01-09T00:16:06.974Z,810.49
2019-01-09T00:17:06.979Z,810.43
2019-01-09T00:18:06.979Z,810.46
2019-01-09T00:19:06.983Z,810.41
2019-01-09T00:20:06.985Z,810.41
2019-01-09T00:21:06.988Z,810.44
2019-01-09T00:22:06.990Z,810.42
2019-01-09T00:23:06.995Z,810.40
2019-01-09T00:24:06.997Z,810.39
2019-01-09T00:25:07.002Z,810.41
2019-01-09T00:26:07.003Z,810.34
2019-01-09T00:27:07.006Z,810.40
2019-01-09T00:28:07.012Z,810.41
2019-01-09T00:29:07.016Z,810.41
2019-01-09T00:30:07.018Z,810.37
2019-01-09T00:31:07.020Z,810.34
2019-01-09T00:32:07.024Z,810.35
2019-01-09T00:33:07.029Z,810.38
2019-01-09T00:34:07.032Z,810.36
2019-01-09T00:35:07.034Z,810.40
2019-01-09T00:36:07.036Z,810.39
2019-01-09T00:37:07.040Z,810.33
2019-01-09T00:38:07.040Z,810.34
2019-01-09T00:39:07.042Z,810.44
2019-01-09T00:40:07.048Z,810.45
2019-01-09T00:41:07.051Z,810.46
2019-01-09T00:42:07.049Z,810.45
2019-01-09T00:43:07.052Z,810.44
2019-01-09T00:44:07.058Z,810.41
2019-01-09T00:45:07.063Z,810.38
2019-01-09T00:46:07.060Z,810.37
2019-01-09T00:47:07.063Z,810.34
2019-01-09T00:48:07.070Z,810.32
2019-01-09T00:49:07.075Z,810.35
2019-01-09T00:50:07.074Z,810.34
2019-01-09T00:51:07.074Z,810.29
2019-01-09T00:52:07.083Z,810.35
2019-01-09T00:53:07.086Z,810.28
2019-01-09T00:54:07.084Z,810.28
2019-01-09T00:55:07.090Z,810.30
2019-01-09T00:56:07.090Z,810.31
2019-01-09T00:57:07.092Z,810.30
2019-01-09T00:58:07.096Z,810.35
2019-01-09T00:59:07.101Z,810.32
2019-01-09T01:00:07.102Z,810.28
2019-01-09T01:01:07.105Z,810.24
2019-01-09T01:02:07.105Z,810.20
2019-01-09T01:03:07.110Z,810.22
2019-01-09T01:04:07.111Z,810.20
2019-01-09T01:05:07.114Z,810.20
2019-01-09T01:06:07.115Z,810.25
2019-01-09T01:07:07.121Z,810.21
2019-01-09T01:08:07.124Z,810.18
2019-01-09T01:09:07.126Z,810.22
2019-01-09T01:10:07.128Z,810.21
2019-01-09T01:11:07.132Z,810.20
2019-01-09T01:12:07.131Z,810.12
2019-01-09T01:13:07.139Z,810.15
2019-01-09T01:14:07.137Z,810.16
2019-01-09T01:15:07.142Z,810.19
2019-01-09T01:16:07.142Z,810.17
2019-01-09T01:17:07.147Z,810.23
2019-01-09T01:18:07.204Z,810.21
2019-01-09T01:19:07.155Z,810.11
2019-01-09T01:20:07.157Z,810.11
2019-01-09T01:21:07.158Z,810.20
2019-01-09T01:22:07.164Z,810.16
2019-01-09T01:23:07.164Z,810.15
2019-01-09T01:24:07.164Z,810.10
2019-01-09T01:25:07.165Z,810.13
2019-01-09T01:26:07.171Z,810.14
2019-01-09T01:27:07.173Z,810.18
2019-01-09T01:28:07.176Z,810.16
2019-01-09T01:29:07.179Z,810.18
2019-01-09T01:30:07.178Z,810.18
2019-01-09T01:31:07.183Z,810.17
2019-01-09T01:32:07.183Z,810.14
2019-01-09T01:33:07.186Z,810.17
2019-01-09T01:34:07.189Z,810.17
2019-01-09T01:35:07.191Z,810.18
2019-01-09T01:36:07.197Z,810.21
2019-01-09T01:37:07.199Z,810.21
2019-01-09T01:38:07.197Z,810.15
2019-01-09T01:39:07.201Z,810.11
2019-01-09T01:40:07.203Z,810.08
2019-01-09T01:41:07.206Z,810.01
2019-01-09T01:42:07.207Z,810.00
2019-01-09T01:43:07.211Z,810.04
2019-01-09T01:44:07.215Z,810.01
2019-01-09T01:45:07.214Z,810.06
2019-01-09T01:46:07.223Z,810.00
2019-01-09T01:47:07.220Z,809.96
2019-01-09T01:48:07.225Z,809.89
2019-01-09T01:49:07.226Z,809.81
2019-01-09T01:50:07.228Z,809.86
2019-01-09T01:51:07.231Z,809.92
2019-01-09T01:52:07.235Z,809.90
2019-01-09T01:53:07.239Z,809.87
2019-01-09T01:54:07.236Z,809.75
2019-01-09T01:55:07.239Z,809.77
2019-01-09T01:56:07.245Z,809.79
2019-01-09T01:57:07.244Z,809.78
2019-01-09T01:58:07.248Z,809.77
2019-01-09T01:59:07.246Z,809.72
2019-01-09T02:00:07.249Z,809.78
2019-01-09T02:01:07.327Z,809.73
2019-01-09T02:02:07.254Z,809.68
2019-01-09T02:03:07.258Z,809.69
2019-01-09T02:04:07.263Z,809.76
2019-01-09T02:05:07.261Z,809.74
2019-01-09T02:06:07.267Z,809.72
2019-01-09T02:07:07.265Z,809.61
2019-01-09T02:08:07.269Z,809.65
2019-01-09T02:09:07.269Z,809.58
2019-01-09T02:10:07.273Z,809.54
2019-01-09T02:11:07.346Z,809.57
2019-01-09T02:12:07.279Z,809.55
2019-01-09T02:13:07.278Z,809.54
2019-01-09T02:14:07.279Z,809.56
2019-01-09T02:15:07.282Z,809.56
2019-01-09T02:16:07.363Z,809.52
2019-01-09T02:17:07.286Z,809.51
2019-01-09T02:18:07.288Z,809.50
2019-01-09T02:19:07.291Z,809.42
2019-01-09T02:20:07.298Z,809.47
2019-01-09T02:21:07.294Z,809.45
2019-01-09T02:22:07.300Z,809.38
2019-01-09T02:23:07.301Z,809.39
2019-01-09T02:24:07.301Z,809.35
2019-01-09T02:25:07.361Z,809.39
2019-01-09T02:26:07.305Z,809.40
2019-01-09T02:27:07.311Z,809.37
2019-01-09T02:28:07.309Z,809.36
2019-01-09T02:29:07.322Z,809.30
2019-01-09T02:30:07.316Z,809.28
2019-01-09T02:31:07.314Z,809.30
2019-01-09T02:32:07.325Z,809.24
2019-01-09T02:33:07.321Z,809.34
2019-01-09T02:34:07.322Z,809.27
2019-01-09T02:35:07.329Z,809.29
2019-01-09T02:36:13.296Z,809.19
2019-01-09T02:37:07.329Z,809.23
2019-01-09T02:38:07.330Z,809.23
2019-01-09T02:39:07.335Z,809.19
2019-01-09T02:40:07.387Z,809.22
2019-01-09T02:41:07.341Z,809.22
2019-01-09T02:42:07.339Z,809.25
2019-01-09T02:43:07.340Z,809.20
2019-01-09T02:44:07.343Z,809.15
2019-01-09T02:45:07.348Z,809.15
2019-01-09T02:46:07.345Z,809.19
2019-01-09T02:47:07.349Z,809.16
2019-01-09T02:48:07.351Z,809.14
2019-01-09T02:49:07.355Z,809.21
2019-01-09T02:50:07.354Z,809.13
2019-01-09T02:51:07.356Z,809.07
2019-01-09T02:52:07.367Z,809.12
2019-01-09T02:53:07.364Z,809.04
2019-01-09T02:54:07.363Z,808.94
2019-01-09T02:55:07.365Z,808.93
2019-01-09T02:56:07.367Z,808.99
2019-01-09T02:57:07.370Z,808.97
2019-01-09T02:58:07.374Z,808.96
2019-01-09T02:59:07.417Z,809.04
2019-01-09T03:00:07.379Z,808.99
2019-01-09T03:01:07.377Z,809.04
2019-01-09T03:02:07.377Z,808.96
2019-01-09T03:03:07.384Z,808.92
2019-01-09T03:04:07.387Z,808.83
2019-01-09T03:05:07.385Z,808.98
2019-01-09T03:06:07.387Z,808.88
2019-01-09T03:07:07.388Z,808.99
2019-01-09T03:08:07.396Z,808.92
2019-01-09T03:09:07.394Z,808.95
2019-01-09T03:10:07.395Z,808.84
2019-01-09T03:11:07.394Z,808.91
2019-01-09T03:12:07.399Z,808.92
2019-01-09T03:13:07.400Z,808.86
2019-01-09T03:14:07.408Z,808.79
2019-01-09T03:15:07.405Z,808.82
2019-01-09T03:16:07.402Z,808.85
2019-01-09T03:17:07.406Z,808.80
2019-01-09T03:18:07.410Z,808.83
2019-01-09T03:19:07.408Z,808.71
2019-01-09T03:20:07.412Z,808.73
2019-01-09T03:21:07.411Z,808.85
2019-01-09T03:22:07.411Z,808.67
2019-01-09T03:23:07.419Z,808.59
2019-01-09T03:24:07.430Z,808.52
2019-01-09T03:25:07.419Z,808.68
2019-01-09T03:26:07.428Z,808.54
2019-01-09T03:27:07.420Z,808.55
2019-01-09T03:28:07.421Z,808.59
2019-01-09T03:29:07.422Z,808.56
2019-01-09T03:30:07.425Z,808.51
2019-01-09T03:31:07.432Z,808.48
2019-01-09T03:32:07.438Z,808.42
2019-01-09T03:33:07.431Z,808.50
2019-01-09T03:34:07.428Z,808.43
2019-01-09T03:35:07.432Z,808.41
2019-01-09T03:36:07.439Z,808.42
2019-01-09T03:37:07.443Z,808.41
2019-01-09T03:38:07.446Z,808.42
2019-01-09T03:57:07.464Z,808.14
2019-01-09T03:58:07.466Z,808.16
2019-01-09T03:59:07.466Z,808.11
2019-01-09T04:00:07.466Z,808.35
2019-01-09T04:01:07.473Z,808.26
2019-01-09T04:02:07.465Z,808.35
2019-01-09T04:03:07.460Z,808.34
2019-01-09T04:04:07.461Z,808.30
2019-01-09T04:05:07.465Z,808.28
2019-01-09T04:06:07.462Z,808.30
2019-01-09T04:07:07.463Z,808.23
2019-01-09T04:08:07.464Z,808.32
2019-01-09T04:09:07.465Z,808.23
2019-01-09T04:10:07.465Z,808.16
2019-01-09T04:11:07.469Z,808.10
2019-01-09T04:12:07.471Z,808.05
2019-01-09T04:13:07.468Z,808.12
2019-01-09T04:14:07.474Z,807.98
2019-01-09T04:15:07.471Z,807.96
2019-01-09T04:16:07.472Z,808.02
2019-01-09T04:17:07.471Z,808.02
2019-01-09T04:18:07.470Z,808.02
2019-01-09T04:19:07.473Z,808.00
2019-01-09T04:20:07.474Z,807.90
2019-01-09T04:21:07.473Z,807.94
2019-01-09T04:22:07.473Z,807.79
2019-01-09T04:23:07.473Z,807.79
2019-01-09T04:24:07.475Z,807.70
2019-01-09T04:25:07.477Z,807.84
2019-01-09T04:26:07.476Z,807.87
2019-01-09T04:27:07.488Z,807.83
2019-01-09T04:28:07.481Z,807.78
2019-01-09T04:29:07.478Z,807.71
2019-01-09T04:30:07.482Z,807.69
2019-01-09T04:31:07.478Z,807.80
2019-01-09T04:32:07.482Z,807.72
2019-01-09T04:33:07.482Z,807.64
2019-01-09T04:34:07.480Z,807.69
2019-01-09T04:35:07.481Z,807.64
2019-01-09T04:36:07.486Z,807.55
2019-01-09T04:37:07.484Z,807.55
2019-01-09T04:38:07.484Z,807.38
2019-01-09T04:39:07.484Z,807.39
2019-01-09T04:40:07.485Z,807.38
2019-01-09T04:41:07.486Z,807.44
2019-01-09T04:42:07.486Z,807.34
2019-01-09T04:43:07.485Z,807.36
2019-01-09T04:44:07.489Z,807.35
2019-01-09T04:45:07.486Z,807.33
2019-01-09T04:46:07.487Z,807.28
2019-01-09T04:47:07.487Z,807.30
2019-01-09T04:48:07.491Z,807.28
2019-01-09T04:49:07.489Z,807.26
2019-01-09T04:50:07.491Z,807.24
2019-01-09T04:51:07.598Z,807.17
2019-01-09T04:52:07.507Z,807.23
2019-01-09T04:53:07.491Z,807.22
2019-01-09T04:54:07.492Z,807.27
2019-01-09T04:55:07.492Z,807.23
2019-01-09T04:56:07.492Z,807.27
2019-01-09T04:57:07.494Z,807.36
2019-01-09T04:58:07.495Z,807.27
2019-01-09T04:59:07.496Z,807.31
2019-01-09T05:00:07.498Z,807.17
2019-01-09T05:01:07.496Z,807.13
2019-01-09T05:02:07.498Z,807.15
2019-01-09T05:03:07.499Z,807.17
2019-01-09T05:04:07.505Z,807.10
2019-01-09T05:05:07.501Z,807.09
2019-01-09T05:06:07.500Z,807.05
2019-01-09T05:07:07.502Z,806.98
2019-01-09T05:08:07.502Z,807.06
2019-01-09T05:09:07.502Z,807.01
2019-01-09T05:10:07.502Z,806.94
2019-01-09T05:11:07.505Z,806.94
2019-01-09T05:12:07.509Z,806.96
2019-01-09T05:13:07.507Z,806.98
2019-01-09T05:14:07.505Z,806.95
2019-01-09T05:15:07.508Z,806.87
2019-01-09T05:16:07.511Z,806.97
2019-01-09T05:17:07.511Z,806.87
2019-01-09T05:18:07.508Z,806.90
2019-01-09T05:19:07.510Z,806.91
2019-01-09T05:20:07.511Z,806.89
2019-01-09T05:21:07.511Z,806.91
2019-01-09T05:22:07.511Z,806.88
2019-01-09T05:23:07.514Z,806.78
2019-01-09T05:24:07.514Z,806.79
2019-01-09T05:25:07.516Z,806.71
2019-01-09T05:26:07.515Z,806.67
2019-01-09T05:27:07.529Z,806.60
2019-01-09T05:28:07.520Z,806.54
2019-01-09T05:29:07.519Z,806.48
2019-01-09T05:30:07.517Z,806.51
2019-01-09T05:31:08.043Z,806.65
2019-01-09T05:32:07.522Z,806.54
2019-01-09T05:33:07.523Z,806.48
2019-01-09T05:34:07.527Z,806.46
2019-01-09T05:35:07.523Z,806.52
2019-01-09T05:36:07.524Z,806.62
2019-01-09T05:37:09.635Z,806.66
2019-01-09T05:38:07.526Z,806.46
2019-01-09T05:39:07.535Z,806.53
2019-01-09T05:40:07.527Z,806.51
2019-01-09T05:41:07.529Z,806.55
2019-01-09T05:42:07.528Z,806.54
2019-01-09T05:43:07.532Z,806.53
2019-01-09T05:44:07.532Z,806.50
2019-01-09T05:45:07.531Z,806.53
2019-01-09T05:46:07.533Z,806.48
2019-01-09T05:47:07.539Z,806.46
2019-01-09T05:48:07.536Z,806.45
2019-01-09T05:49:07.536Z,806.52
2019-01-09T05:50:07.536Z,806.51
2019-01-09T05:51:07.537Z,806.52
2019-01-09T05:52:07.537Z,806.47
2019-01-09T05:53:07.542Z,806.50
2019-01-09T05:54:07.540Z,806.55
2019-01-09T05:55:07.543Z,806.44
2019-01-09T05:56:07.542Z,806.45
2019-01-09T05:57:07.543Z,806.33
2019-01-09T05:58:07.542Z,806.37
2019-01-09T05:59:07.546Z,806.33
2019-01-09T06:00:07.547Z,806.32
2019-01-09T06:01:07.548Z,806.26
2019-01-09T06:02:07.549Z,806.29
2019-01-09T06:03:07.550Z,806.23
2019-01-09T06:04:07.550Z,806.26
2019-01-09T06:05:07.555Z,806.30
2019-01-09T06:06:07.553Z,806.24
2019-01-09T06:07:07.557Z,806.19
2019-01-09T06:08:07.556Z,806.13
2019-01-09T06:09:07.555Z,806.18
2019-01-09T06:10:07.557Z,806.22
2019-01-09T06:11:07.559Z,806.13
2019-01-09T06:12:07.560Z,806.13
2019-01-09T06:13:07.565Z,806.07
2019-01-09T06:14:07.566Z,806.16
2019-01-09T06:15:07.565Z,806.12
2019-01-09T06:16:07.564Z,806.10
2019-01-09T06:17:07.565Z,806.00
2019-01-09T06:18:07.565Z,805.98
2019-01-09T06:19:07.567Z,805.96
2019-01-09T06:20:07.567Z,805.97
2019-01-09T06:21:07.571Z,805.96
2019-01-09T06:22:07.572Z,805.97
2019-01-09T06:23:07.571Z,806.04
2019-01-09T06:24:07.572Z,806.00
2019-01-09T06:25:07.583Z,805.99
2019-01-09T06:26:07.572Z,805.98
2019-01-09T06:27:07.577Z,805.98
2019-01-09T06:28:07.575Z,805.97
2019-01-09T06:29:07.576Z,805.94
2019-01-09T06:30:07.577Z,805.98
2019-01-09T06:31:07.582Z,805.96
2019-01-09T06:32:07.580Z,806.02
2019-01-09T06:33:07.580Z,805.94
2019-01-09T06:34:07.584Z,805.92
2019-01-09T06:35:07.587Z,805.89
2019-01-09T06:36:07.587Z,805.94
2019-01-09T06:37:07.591Z,805.86
2019-01-09T06:38:07.585Z,805.79
2019-01-09T06:39:07.586Z,805.73
2019-01-09T06:40:07.592Z,805.70
2019-01-09T06:41:07.590Z,805.73
2019-01-09T06:42:07.593Z,805.74
2019-01-09T06:43:07.592Z,805.85
2019-01-09T06:44:07.593Z,805.89
2019-01-09T06:45:07.592Z,805.88
2019-01-09T06:46:07.592Z,805.84
2019-01-09T06:47:07.592Z,805.75
2019-01-09T06:48:07.595Z,805.82
2019-01-09T06:49:07.598Z,805.82
2019-01-09T06:50:07.595Z,805.76
2019-01-09T06:51:07.596Z,805.73
2019-01-09T06:52:07.598Z,805.71
2019-01-09T06:53:07.615Z,805.74
2019-01-09T06:54:07.648Z,805.82
2019-01-09T06:55:07.631Z,805.80
2019-01-09T06:56:07.613Z,805.78
2019-01-09T06:57:07.604Z,805.74
2019-01-09T06:58:07.603Z,805.73
2019-01-09T06:59:07.605Z,805.72
2019-01-09T07:00:07.606Z,805.74
2019-01-09T07:01:07.608Z,805.71
2019-01-09T07:02:07.610Z,805.73
2019-01-09T07:03:07.612Z,805.73
2019-01-09T07:04:07.609Z,805.71
2019-01-09T07:05:07.612Z,805.72
2019-01-09T07:06:07.611Z,805.69
2019-01-09T07:07:07.612Z,805.71
2019-01-09T07:08:07.616Z,805.66
2019-01-09T07:09:07.615Z,805.66
2019-01-09T07:10:07.618Z,805.62
2019-01-09T07:11:07.615Z,805.60
2019-01-09T07:12:07.617Z,805.63
2019-01-09T07:13:07.619Z,805.60
2019-01-09T07:14:07.626Z,805.62
2019-01-09T07:15:12.493Z,805.60
2019-01-09T07:16:07.620Z,805.64
2019-01-09T07:17:07.622Z,805.71
2019-01-09T07:18:07.624Z,805.72
2019-01-09T07:19:07.625Z,805.72
2019-01-09T07:20:07.625Z,805.77
2019-01-09T07:21:07.630Z,805.73
2019-01-09T07:22:07.627Z,805.73
2019-01-09T07:23:07.629Z,805.80
2019-01-09T07:24:07.633Z,805.64
2019-01-09T07:25:07.632Z,805.69
2019-01-09T07:26:07.630Z,805.76
2019-01-09T07:27:07.631Z,805.75
2019-01-09T07:28:07.633Z,805.75
2019-01-09T07:29:07.634Z,805.76
2019-01-09T07:30:07.634Z,805.77
2019-01-09T07:31:07.638Z,805.78
2019-01-09T07:32:07.640Z,805.76
2019-01-09T07:33:07.643Z,805.74
2019-01-09T07:34:07.640Z,805.81
2019-01-09T07:35:07.640Z,805.81
2019-01-09T07:36:07.644Z,805.82
2019-01-09T07:37:07.644Z,805.82
2019-01-09T07:38:07.643Z,805.86
2019-01-09T07:39:07.646Z,805.94
2019-01-09T07:40:07.728Z,805.93
2019-01-09T07:41:07.649Z,806.01
2019-01-09T07:42:07.649Z,805.94
2019-01-09T07:43:07.654Z,805.92
2019-01-09T07:44:07.660Z,805.93
2019-01-09T07:45:07.656Z,805.91
2019-01-09T07:46:07.653Z,805.91
2019-01-09T07:47:07.659Z,805.93
2019-01-09T07:48:07.656Z,805.90
2019-01-09T07:49:07.660Z,805.91
2019-01-09T07:50:07.659Z,805.92
2019-01-09T07:51:07.660Z,805.90
2019-01-09T07:52:07.661Z,805.88
2019-01-09T07:53:07.668Z,805.94
2019-01-09T07:54:07.663Z,806.02
2019-01-09T07:55:07.670Z,806.00
2019-01-09T07:56:07.668Z,805.98
2019-01-09T07:57:07.667Z,806.03
2019-01-09T07:58:07.672Z,805.99
2019-01-09T07:59:07.670Z,806.02
2019-01-09T08:00:07.671Z,806.03
2019-01-09T08:01:07.674Z,805.98
2019-01-09T08:02:07.674Z,805.97
2019-01-09T08:03:07.677Z,805.96
2019-01-09T08:04:07.676Z,805.93
2019-01-09T08:05:07.679Z,805.98
2019-01-09T08:06:07.680Z,805.94
2019-01-09T08:07:07.679Z,805.99
2019-01-09T08:08:07.683Z,806.00
2019-01-09T08:09:07.685Z,806.06
2019-01-09T08:10:07.687Z,806.05
2019-01-09T08:11:07.686Z,806.09
2019-01-09T08:12:07.694Z,806.08
2019-01-09T08:13:07.689Z,806.00
2019-01-09T08:14:07.690Z,806.03
2019-01-09T08:15:07.692Z,806.06
2019-01-09T08:16:07.694Z,806.03
2019-01-09T08:17:07.694Z,805.93
2019-01-09T08:18:07.696Z,805.98
2019-01-09T08:19:07.700Z,805.94
2019-01-09T08:20:07.701Z,805.96
2019-01-09T08:21:07.702Z,805.96
2019-01-09T08:22:07.707Z,806.02
2019-01-09T08:23:07.706Z,806.00
2019-01-09T08:24:07.707Z,805.99
2019-01-09T08:25:07.708Z,805.97
2019-01-09T08:26:07.713Z,805.97
2019-01-09T08:27:07.712Z,805.98
2019-01-09T08:28:07.712Z,805.94
2019-01-09T08:29:07.715Z,805.90
2019-01-09T08:30:07.713Z,805.90
2019-01-09T08:31:07.717Z,805.83
2019-01-09T08:32:07.721Z,805.87
2019-01-09T08:33:07.721Z,805.91
2019-01-09T08:34:07.722Z,805.94
2019-01-09T08:35:07.727Z,805.96
2019-01-09T08:36:07.726Z,805.89
2019-01-09T08:37:07.726Z,805.92
2019-01-09T08:38:07.727Z,805.91
2019-01-09T08:39:07.730Z,805.90
2019-01-09T08:40:07.731Z,805.89
2019-01-09T08:41:07.735Z,805.87
2019-01-09T08:42:07.732Z,805.95
2019-01-09T08:43:07.736Z,805.96
2019-01-09T08:44:07.736Z,805.84
2019-01-09T08:45:07.745Z,805.99
2019-01-09T08:46:07.739Z,805.95
2019-01-09T08:47:07.746Z,805.98
2019-01-09T08:48:07.745Z,805.91
2019-01-09T08:49:07.746Z,805.97
2019-01-09T08:50:07.753Z,805.89
2019-01-09T08:51:07.748Z,805.99
2019-01-09T08:52:07.751Z,805.93
2019-01-09T08:53:07.753Z,805.98
2019-01-09T08:54:07.753Z,805.94
2019-01-09T08:55:07.755Z,805.98
2019-01-09T08:56:07.756Z,806.02
2019-01-09T08:57:07.758Z,805.94
2019-01-09T08:58:07.757Z,805.96
2019-01-09T08:59:07.764Z,805.87
2019-01-09T09:00:07.762Z,805.96
2019-01-09T09:01:07.766Z,805.86
2019-01-09T09:02:07.767Z,805.89
2019-01-09T09:03:07.764Z,805.93
2019-01-09T09:04:07.765Z,805.96
2019-01-09T09:05:07.769Z,805.77
2019-01-09T09:06:07.770Z,805.86
2019-01-09T09:07:07.773Z,805.86
2019-01-09T09:08:12.213Z,805.91
2019-01-09T09:09:07.772Z,805.96
2019-01-09T09:10:07.772Z,805.99
2019-01-09T09:11:07.775Z,805.96
2019-01-09T09:12:07.774Z,805.94
2019-01-09T09:13:07.775Z,806.06
2019-01-09T09:14:08.140Z,806.00
2019-01-09T09:15:07.775Z,805.95
2019-01-09T09:16:07.884Z,805.99
2019-01-09T09:17:07.778Z,805.98
2019-01-09T09:18:07.780Z,805.99
2019-01-09T09:19:07.778Z,806.04
2019-01-09T09:20:07.779Z,806.07
2019-01-09T09:21:07.782Z,806.02
2019-01-09T09:22:07.781Z,805.99
2019-01-09T09:23:07.782Z,805.94
2019-01-09T09:24:07.782Z,806.01
2019-01-09T09:25:07.782Z,806.04
2019-01-09T09:26:07.780Z,806.07
2019-01-09T09:27:07.781Z,806.04
2019-01-09T09:28:07.783Z,806.06
2019-01-09T09:29:07.787Z,806.07
2019-01-09T09:30:07.785Z,806.02
2019-01-09T09:31:07.786Z,806.06
2019-01-09T09:32:07.785Z,806.05
2019-01-09T09:33:07.786Z,806.09
2019-01-09T09:34:07.786Z,806.06
2019-01-09T09:35:07.790Z,806.07
2019-01-09T09:36:07.786Z,806.04
2019-01-09T09:37:07.790Z,806.00
2019-01-09T09:38:07.787Z,806.02
2019-01-09T09:39:07.790Z,806.03
2019-01-09T09:40:07.788Z,806.04
2019-01-09T09:41:07.791Z,806.05
2019-01-09T09:42:07.789Z,806.09
2019-01-09T09:43:07.793Z,806.06
2019-01-09T09:44:07.791Z,806.08
2019-01-09T09:45:07.792Z,806.05
2019-01-09T09:46:07.792Z,806.08
2019-01-09T09:47:07.794Z,806.04
2019-01-09T09:48:07.795Z,806.08
2019-01-09T09:49:07.796Z,806.07
2019-01-09T09:50:07.884Z,806.06
2019-01-09T09:51:07.799Z,806.09
2019-01-09T09:52:07.800Z,806.06
2019-01-09T09:53:07.801Z,806.09
2019-01-09T09:54:07.803Z,806.10
2019-01-09T09:55:12.777Z,806.09
2019-01-09T09:56:07.803Z,806.11
2019-01-09T09:57:07.804Z,806.09
2019-01-09T09:58:07.807Z,806.12
2019-01-09T09:59:07.813Z,806.03
2019-01-09T10:00:07.809Z,806.04
2019-01-09T10:01:07.809Z,806.01
2019-01-09T10:02:07.811Z,806.02
2019-01-09T10:03:07.815Z,806.01
2019-01-09T10:04:07.815Z,806.00
2019-01-09T10:05:07.814Z,805.95
2019-01-09T10:06:07.817Z,805.99
2019-01-09T10:07:07.817Z,805.96
2019-01-09T10:08:07.819Z,806.01
2019-01-09T10:09:07.822Z,806.00
2019-01-09T10:10:07.824Z,805.98
2019-01-09T10:11:07.824Z,805.95
2019-01-09T10:12:07.827Z,805.91
2019-01-09T10:13:07.828Z,805.91
2019-01-09T10:14:07.829Z,805.92
2019-01-09T10:15:07.834Z,805.96
2019-01-09T10:16:07.837Z,805.96
2019-01-09T10:17:07.834Z,805.93
2019-01-09T10:18:07.836Z,805.96
2019-01-09T10:19:07.836Z,805.96
2019-01-09T10:20:07.844Z,805.93
2019-01-09T10:21:07.843Z,805.93
2019-01-09T10:22:07.852Z,805.94
2019-01-09T10:23:07.849Z,805.96
2019-01-09T10:24:07.848Z,805.97
2019-01-09T10:25:07.858Z,805.96
2019-01-09T10:26:07.852Z,805.97
2019-01-09T10:27:07.852Z,805.95
2019-01-09T10:28:07.873Z,805.92
2019-01-09T10:29:07.856Z,805.90
2019-01-09T10:30:07.860Z,805.88
2019-01-09T10:31:07.860Z,805.91
2019-01-09T10:32:07.863Z,805.89
2019-01-09T10:33:07.868Z,805.86
2019-01-09T10:34:07.865Z,805.86
2019-01-09T10:35:07.869Z,805.90
2019-01-09T10:36:07.869Z,805.89
2019-01-09T10:37:07.874Z,805.94
2019-01-09T10:38:07.875Z,805.92
2019-01-09T10:39:07.877Z,805.92
2019-01-09T10:40:07.879Z,805.88
2019-01-09T10:41:07.880Z,805.90
2019-01-09T10:42:08.330Z,805.88
2019-01-09T10:43:07.884Z,805.88
2019-01-09T10:44:07.885Z,805.87
2019-01-09T10:45:07.885Z,805.88
2019-01-09T10:46:07.887Z,805.87
2019-01-09T10:47:07.889Z,805.98
2019-01-09T10:48:07.895Z,806.04
2019-01-09T10:49:07.897Z,805.94
2019-01-09T10:50:07.893Z,805.93
2019-01-09T10:51:07.896Z,805.92
2019-01-09T10:52:07.899Z,805.95
2019-01-09T10:53:07.908Z,805.91
2019-01-09T10:54:07.902Z,805.93
2019-01-09T10:55:07.904Z,805.92
2019-01-09T10:56:07.907Z,805.98
2019-01-09T10:57:07.905Z,806.01
2019-01-09T10:58:07.908Z,805.97
2019-01-09T10:59:07.910Z,805.95
2019-01-09T11:00:07.911Z,805.98
2019-01-09T11:01:07.912Z,806.00
2019-01-09T11:02:07.913Z,806.02
2019-01-09T11:03:07.916Z,806.08
2019-01-09T11:04:07.921Z,806.05
2019-01-09T11:05:07.920Z,806.06
2019-01-09T11:06:07.921Z,806.06
2019-01-09T11:07:07.922Z,806.01
2019-01-09T11:08:07.923Z,806.02
2019-01-09T11:09:07.928Z,806.04
2019-01-09T11:10:07.929Z,806.07
2019-01-09T11:11:07.930Z,806.07
2019-01-09T11:12:07.933Z,806.11
2019-01-09T11:13:07.936Z,806.09
2019-01-09T11:14:09.432Z,806.11
2019-01-09T11:15:07.937Z,806.11
2019-01-09T11:16:07.940Z,806.09
2019-01-09T11:17:07.941Z,806.07
2019-01-09T11:18:07.942Z,806.08
2019-01-09T11:19:07.946Z,806.05
2019-01-09T11:20:07.945Z,806.06
2019-01-09T11:21:07.952Z,806.11
2019-01-09T11:22:07.951Z,806.13
2019-01-09T11:23:07.975Z,806.08
2019-01-09T11:24:07.957Z,806.02
2019-01-09T11:25:07.961Z,806.04
2019-01-09T11:26:07.960Z,806.04
2019-01-09T11:27:07.960Z,806.02
2019-01-09T11:28:07.965Z,806.03
2019-01-09T11:29:07.972Z,805.97
2019-01-09T11:30:07.971Z,805.93
2019-01-09T11:31:07.971Z,805.92
2019-01-09T11:32:09.531Z,805.94
2019-01-09T11:33:07.975Z,805.87
2019-01-09T11:34:07.978Z,805.85
2019-01-09T11:35:07.979Z,805.85
2019-01-09T11:36:07.983Z,805.80
2019-01-09T11:37:07.985Z,805.79
2019-01-09T11:38:07.986Z,805.80
2019-01-09T11:39:07.993Z,805.76
2019-01-09T11:40:07.997Z,805.72
2019-01-09T11:41:07.996Z,805.71
2019-01-09T11:42:07.999Z,805.70
2019-01-09T11:43:07.999Z,805.67
2019-01-09T11:44:08.006Z,805.62
2019-01-09T11:45:08.006Z,805.61
2019-01-09T11:46:08.008Z,805.62
2019-01-09T11:47:08.012Z,805.59
2019-01-09T11:48:08.022Z,805.60
2019-01-09T11:49:08.022Z,805.61
2019-01-09T11:50:08.018Z,805.60
2019-01-09T11:51:08.021Z,805.59
2019-01-09T11:52:08.029Z,805.57
2019-01-09T11:53:08.028Z,805.55
2019-01-09T11:54:08.032Z,805.54
2019-01-09T11:55:08.034Z,805.51
2019-01-09T11:56:08.035Z,805.51
2019-01-09T11:57:08.038Z,805.51
2019-01-09T11:58:08.041Z,805.46
2019-01-09T11:59:08.045Z,805.45
2019-01-09T12:00:08.046Z,805.45
2019-01-09T12:01:08.053Z,805.33
2019-01-09T12:02:08.053Z,805.31
2019-01-09T12:03:08.058Z,805.33
2019-01-09T12:04:08.057Z,805.31
2019-01-09T12:05:08.063Z,805.26
2019-01-09T12:06:08.063Z,805.26
2019-01-09T12:07:08.066Z,805.23
2019-01-09T12:08:08.075Z,805.23
2019-01-09T12:09:08.080Z,805.17
2019-01-09T12:10:08.076Z,805.11
2019-01-09T12:11:08.163Z,805.03
2019-01-09T12:12:08.080Z,805.03
2019-01-09T12:13:08.081Z,805.05
2019-01-09T12:14:08.083Z,805.01
2019-01-09T12:15:08.091Z,805.03
2019-01-09T12:16:08.489Z,804.97
2019-01-09T12:17:08.095Z,804.91
2019-01-09T12:18:08.099Z,805.00
2019-01-09T12:19:08.099Z,804.99
2019-01-09T12:20:08.106Z,804.99
2019-01-09T12:21:16.438Z,805.01
2019-01-09T12:22:08.112Z,804.98
2019-01-09T12:23:08.116Z,804.96
2019-01-09T12:24:08.117Z,804.96
2019-01-09T12:25:08.119Z,804.98
2019-01-09T12:26:08.124Z,804.92
2019-01-09T12:27:08.129Z,804.97
2019-01-09T12:28:08.129Z,804.97
2019-01-09T12:29:08.133Z,804.98
2019-01-09T12:30:08.135Z,804.87
2019-01-09T12:31:08.139Z,804.87
2019-01-09T12:32:08.144Z,804.86
2019-01-09T12:33:08.150Z,804.91
2019-01-09T12:34:08.149Z,804.94
2019-01-09T12:35:08.153Z,804.84
2019-01-09T12:36:08.155Z,804.87
2019-01-09T12:37:08.160Z,804.79
2019-01-09T12:38:08.160Z,804.83
2019-01-09T12:39:13.187Z,804.75
2019-01-09T12:40:08.169Z,804.80
2019-01-09T12:41:08.180Z,804.77
2019-01-09T12:42:08.173Z,804.79
2019-01-09T12:43:08.176Z,804.78
2019-01-09T12:44:08.180Z,804.78
2019-01-09T12:45:08.184Z,804.78
2019-01-09T12:46:08.185Z,804.75